sensor_id;sensor_type;location;lat;lon;timestamp;temperature;humidity
16038;DHT22;8123;50.906;6.172;2022-09-09T00:01:10;15.30;99.90
16038;DHT22;8123;50.906;6.172;2022-09-09T00:06:32;15.30;99.90
16038;DHT22;8123;50.906;6.172;2022-09-09T00:09:14;15.20;99.90
16038;DHT22;8123;50.906;6.172;2022-09-09T00:17:08;15.10;99.90
16038;DHT22;8123;50.906;6.172;2022-09-09T00:20:00;15.10;99.90
16038;DHT22;8123;50.906;6.172;2022-09-09T00:22:29;15.10;99.90
16038;DHT22;8123;50.906;6.172;2022-09-09T00:25:11;15.00;99.90
16038;DHT22;8123;50.906;6.172;2022-09-09T00:27:48;15.10;99.90
16038;DHT22;8123;50.906;6.172;2022-09-09T00:30:17;15.00;99.90
16038;DHT22;8123;50.906;6.172;2022-09-09T00:32:46;15.00;99.90
16038;DHT22;8123;50.906;6.172;2022-09-09T00:35:22;14.90;99.90
16038;DHT22;8123;50.906;6.172;2022-09-09T00:37:53;14.90;99.90
16038;DHT22;8123;50.906;6.172;2022-09-09T00:40:34;15.00;99.90
16038;DHT22;8123;50.906;6.172;2022-09-09T00:51:33;14.90;99.90
16038;DHT22;8123;50.906;6.172;2022-09-09T00:56:41;14.90;99.90
16038;DHT22;8123;50.906;6.172;2022-09-09T00:59:32;14.90;99.90
16038;DHT22;8123;50.906;6.172;2022-09-09T01:05:42;14.90;99.90
16038;DHT22;8123;50.906;6.172;2022-09-09T01:08:48;14.90;99.90
16038;DHT22;8123;50.906;6.172;2022-09-09T01:11:01;14.90;99.90
16038;DHT22;8123;50.906;6.172;2022-09-09T01:13:35;14.90;99.90
16038;DHT22;8123;50.906;6.172;2022-09-09T01:16:04;14.80;99.90
16038;DHT22;8123;50.906;6.172;2022-09-09T01:18:40;14.80;99.90
16038;DHT22;8123;50.906;6.172;2022-09-09T01:21:42;14.80;99.90
16038;DHT22;8123;50.906;6.172;2022-09-09T01:24:19;14.80;99.90
16038;DHT22;8123;50.906;6.172;2022-09-09T01:26:49;14.80;99.90
16038;DHT22;8123;50.906;6.172;2022-09-09T01:29:18;14.80;99.90
16038;DHT22;8123;50.906;6.172;2022-09-09T01:31:57;14.90;99.90
16038;DHT22;8123;50.906;6.172;2022-09-09T01:34:26;15.00;99.90
16038;DHT22;8123;50.906;6.172;2022-09-09T01:39:30;15.10;99.90
16038;DHT22;8123;50.906;6.172;2022-09-09T01:41:56;15.20;99.90
16038;DHT22;8123;50.906;6.172;2022-09-09T01:44:23;15.20;99.90
16038;DHT22;8123;50.906;6.172;2022-09-09T01:46:49;15.20;99.90
16038;DHT22;8123;50.906;6.172;2022-09-09T01:49:16;15.20;99.90
16038;DHT22;8123;50.906;6.172;2022-09-09T01:51:43;15.20;99.90
16038;DHT22;8123;50.906;6.172;2022-09-09T01:54:09;15.20;99.90
16038;DHT22;8123;50.906;6.172;2022-09-09T01:56:47;15.20;99.90
16038;DHT22;8123;50.906;6.172;2022-09-09T01:59:28;15.20;99.90
16038;DHT22;8123;50.906;6.172;2022-09-09T02:08:17;15.30;99.90
16038;DHT22;8123;50.906;6.172;2022-09-09T02:10:53;15.30;99.90
16038;DHT22;8123;50.906;6.172;2022-09-09T02:13:21;15.40;99.90
16038;DHT22;8123;50.906;6.172;2022-09-09T02:15:54;15.50;99.90
16038;DHT22;8123;50.906;6.172;2022-09-09T02:18:26;15.50;99.90
16038;DHT22;8123;50.906;6.172;2022-09-09T02:20:53;15.50;99.90
16038;DHT22;8123;50.906;6.172;2022-09-09T02:23:19;15.60;99.90
16038;DHT22;8123;50.906;6.172;2022-09-09T02:25:46;15.60;99.90
16038;DHT22;8123;50.906;6.172;2022-09-09T02:28:14;15.60;99.90
16038;DHT22;8123;50.906;6.172;2022-09-09T02:30:41;15.60;99.90
16038;DHT22;8123;50.906;6.172;2022-09-09T02:33:10;15.60;99.90
16038;DHT22;8123;50.906;6.172;2022-09-09T02:35:38;15.60;99.90
16038;DHT22;8123;50.906;6.172;2022-09-09T02:38:08;15.60;99.90
16038;DHT22;8123;50.906;6.172;2022-09-09T02:40:36;15.60;99.90
16038;DHT22;8123;50.906;6.172;2022-09-09T02:43:02;15.60;99.90
16038;DHT22;8123;50.906;6.172;2022-09-09T02:45:42;15.60;99.90
16038;DHT22;8123;50.906;6.172;2022-09-09T02:48:11;15.60;99.90
16038;DHT22;8123;50.906;6.172;2022-09-09T02:51:09;15.60;99.90
16038;DHT22;8123;50.906;6.172;2022-09-09T02:53:42;15.60;99.90
16038;DHT22;8123;50.906;6.172;2022-09-09T02:56:17;15.60;99.90
16038;DHT22;8123;50.906;6.172;2022-09-09T02:58:44;15.70;99.90
16038;DHT22;8123;50.906;6.172;2022-09-09T03:01:09;15.70;99.90
16038;DHT22;8123;50.906;6.172;2022-09-09T03:03:35;15.70;99.90
16038;DHT22;8123;50.906;6.172;2022-09-09T03:06:01;15.80;99.90
16038;DHT22;8123;50.906;6.172;2022-09-09T03:08:27;15.80;99.90
16038;DHT22;8123;50.906;6.172;2022-09-09T03:10:54;15.80;99.90
16038;DHT22;8123;50.906;6.172;2022-09-09T03:13:20;15.70;99.90
16038;DHT22;8123;50.906;6.172;2022-09-09T03:15:47;15.80;99.90
16038;DHT22;8123;50.906;6.172;2022-09-09T03:18:13;15.80;99.90
16038;DHT22;8123;50.906;6.172;2022-09-09T03:20:39;15.80;99.90
16038;DHT22;8123;50.906;6.172;2022-09-09T03:23:06;15.80;99.90
16038;DHT22;8123;50.906;6.172;2022-09-09T03:25:31;15.80;99.90
16038;DHT22;8123;50.906;6.172;2022-09-09T03:27:57;15.80;99.90
16038;DHT22;8123;50.906;6.172;2022-09-09T03:30:24;15.80;99.90
16038;DHT22;8123;50.906;6.172;2022-09-09T03:32:50;15.80;99.90
16038;DHT22;8123;50.906;6.172;2022-09-09T03:35:16;16.30;99.90
16038;DHT22;8123;50.906;6.172;2022-09-09T03:37:42;15.80;99.90
16038;DHT22;8123;50.906;6.172;2022-09-09T03:40:08;15.80;99.90
16038;DHT22;8123;50.906;6.172;2022-09-09T03:42:35;15.80;99.90
16038;DHT22;8123;50.906;6.172;2022-09-09T03:45:03;15.80;99.90
16038;DHT22;8123;50.906;6.172;2022-09-09T03:47:29;15.80;99.90
16038;DHT22;8123;50.906;6.172;2022-09-09T03:49:55;15.80;99.90
16038;DHT22;8123;50.906;6.172;2022-09-09T03:52:20;15.80;99.90
16038;DHT22;8123;50.906;6.172;2022-09-09T03:54:50;15.80;99.90
16038;DHT22;8123;50.906;6.172;2022-09-09T03:57:16;15.80;99.90
16038;DHT22;8123;50.906;6.172;2022-09-09T03:59:43;15.80;99.90
16038;DHT22;8123;50.906;6.172;2022-09-09T04:02:09;15.80;99.90
16038;DHT22;8123;50.906;6.172;2022-09-09T04:04:35;15.80;99.90
16038;DHT22;8123;50.906;6.172;2022-09-09T04:07:01;15.80;99.90
16038;DHT22;8123;50.906;6.172;2022-09-09T04:09:26;15.80;99.90
16038;DHT22;8123;50.906;6.172;2022-09-09T04:11:52;15.80;99.90
16038;DHT22;8123;50.906;6.172;2022-09-09T04:14:20;15.80;99.90
16038;DHT22;8123;50.906;6.172;2022-09-09T04:16:45;15.80;99.90
16038;DHT22;8123;50.906;6.172;2022-09-09T04:19:12;15.90;99.90
16038;DHT22;8123;50.906;6.172;2022-09-09T04:21:40;15.90;99.90
16038;DHT22;8123;50.906;6.172;2022-09-09T04:24:07;15.90;99.90
16038;DHT22;8123;50.906;6.172;2022-09-09T04:26:33;15.90;99.90
16038;DHT22;8123;50.906;6.172;2022-09-09T04:28:59;15.90;99.90
16038;DHT22;8123;50.906;6.172;2022-09-09T04:31:24;15.90;99.90
16038;DHT22;8123;50.906;6.172;2022-09-09T04:33:51;15.90;99.90
16038;DHT22;8123;50.906;6.172;2022-09-09T04:36:17;15.90;99.90
16038;DHT22;8123;50.906;6.172;2022-09-09T04:38:45;15.90;99.90
16038;DHT22;8123;50.906;6.172;2022-09-09T04:41:11;15.90;99.90
16038;DHT22;8123;50.906;6.172;2022-09-09T04:43:38;15.90;99.90
16038;DHT22;8123;50.906;6.172;2022-09-09T04:46:04;15.90;99.90
16038;DHT22;8123;50.906;6.172;2022-09-09T04:48:31;16.00;99.90
16038;DHT22;8123;50.906;6.172;2022-09-09T04:50:57;16.00;99.90
16038;DHT22;8123;50.906;6.172;2022-09-09T04:53:23;16.00;99.90
16038;DHT22;8123;50.906;6.172;2022-09-09T04:55:51;16.00;99.90
16038;DHT22;8123;50.906;6.172;2022-09-09T04:58:17;16.00;99.90
16038;DHT22;8123;50.906;6.172;2022-09-09T05:00:42;16.00;99.90
16038;DHT22;8123;50.906;6.172;2022-09-09T05:03:08;15.90;99.90
16038;DHT22;8123;50.906;6.172;2022-09-09T05:05:34;16.00;99.90
16038;DHT22;8123;50.906;6.172;2022-09-09T05:08:05;16.00;99.90
16038;DHT22;8123;50.906;6.172;2022-09-09T05:10:32;16.00;99.90
16038;DHT22;8123;50.906;6.172;2022-09-09T05:12:58;15.90;99.90
16038;DHT22;8123;50.906;6.172;2022-09-09T05:15:24;15.90;99.90
16038;DHT22;8123;50.906;6.172;2022-09-09T05:17:49;15.90;99.90
16038;DHT22;8123;50.906;6.172;2022-09-09T05:20:17;15.90;99.90
16038;DHT22;8123;50.906;6.172;2022-09-09T05:22:43;15.90;99.90
16038;DHT22;8123;50.906;6.172;2022-09-09T05:25:09;15.90;99.90
16038;DHT22;8123;50.906;6.172;2022-09-09T05:27:35;15.90;99.90
16038;DHT22;8123;50.906;6.172;2022-09-09T05:30:01;15.90;99.90
16038;DHT22;8123;50.906;6.172;2022-09-09T05:32:26;15.90;99.90
16038;DHT22;8123;50.906;6.172;2022-09-09T05:34:53;15.90;99.90
16038;DHT22;8123;50.906;6.172;2022-09-09T05:37:19;15.90;99.90
16038;DHT22;8123;50.906;6.172;2022-09-09T05:39:44;15.80;99.90
16038;DHT22;8123;50.906;6.172;2022-09-09T05:42:10;15.90;99.90
16038;DHT22;8123;50.906;6.172;2022-09-09T05:44:36;15.90;99.90
16038;DHT22;8123;50.906;6.172;2022-09-09T05:47:02;15.90;99.90
16038;DHT22;8123;50.906;6.172;2022-09-09T05:49:28;15.90;99.90
16038;DHT22;8123;50.906;6.172;2022-09-09T05:51:54;15.90;99.90
16038;DHT22;8123;50.906;6.172;2022-09-09T05:54:19;15.90;99.90
16038;DHT22;8123;50.906;6.172;2022-09-09T05:56:45;15.90;99.90
16038;DHT22;8123;50.906;6.172;2022-09-09T05:59:11;15.90;99.90
16038;DHT22;8123;50.906;6.172;2022-09-09T06:01:39;15.90;99.90
16038;DHT22;8123;50.906;6.172;2022-09-09T06:04:08;16.00;99.90
16038;DHT22;8123;50.906;6.172;2022-09-09T06:06:36;16.10;99.90
16038;DHT22;8123;50.906;6.172;2022-09-09T06:09:03;16.00;99.90
16038;DHT22;8123;50.906;6.172;2022-09-09T06:11:34;16.10;99.90
16038;DHT22;8123;50.906;6.172;2022-09-09T06:14:01;16.10;99.90
16038;DHT22;8123;50.906;6.172;2022-09-09T06:16:28;16.10;99.90
16038;DHT22;8123;50.906;6.172;2022-09-09T06:18:55;16.10;99.90
16038;DHT22;8123;50.906;6.172;2022-09-09T06:21:27;16.00;99.90
16038;DHT22;8123;50.906;6.172;2022-09-09T06:23:53;16.00;99.90
16038;DHT22;8123;50.906;6.172;2022-09-09T06:28:48;16.00;99.90
16038;DHT22;8123;50.906;6.172;2022-09-09T06:31:22;16.00;99.90
16038;DHT22;8123;50.906;6.172;2022-09-09T06:33:50;16.00;99.90
16038;DHT22;8123;50.906;6.172;2022-09-09T06:36:19;15.80;99.90
16038;DHT22;8123;50.906;6.172;2022-09-09T06:38:46;16.10;99.90
16038;DHT22;8123;50.906;6.172;2022-09-09T06:41:13;16.10;99.90
16038;DHT22;8123;50.906;6.172;2022-09-09T06:43:39;16.20;99.90
16038;DHT22;8123;50.906;6.172;2022-09-09T06:48:36;16.30;99.90
16038;DHT22;8123;50.906;6.172;2022-09-09T06:51:10;16.40;99.90
16038;DHT22;8123;50.906;6.172;2022-09-09T06:53:37;16.40;99.90
16038;DHT22;8123;50.906;6.172;2022-09-09T06:56:25;16.50;99.90
16038;DHT22;8123;50.906;6.172;2022-09-09T06:58:53;16.50;99.90
16038;DHT22;8123;50.906;6.172;2022-09-09T07:01:23;16.60;99.90
16038;DHT22;8123;50.906;6.172;2022-09-09T07:03:53;16.60;99.90
16038;DHT22;8123;50.906;6.172;2022-09-09T07:06:24;16.80;99.90
16038;DHT22;8123;50.906;6.172;2022-09-09T07:08:55;16.90;99.90
16038;DHT22;8123;50.906;6.172;2022-09-09T07:11:22;16.90;99.90
16038;DHT22;8123;50.906;6.172;2022-09-09T07:13:48;17.00;99.90
16038;DHT22;8123;50.906;6.172;2022-09-09T07:16:16;17.00;99.90
16038;DHT22;8123;50.906;6.172;2022-09-09T07:18:43;17.00;99.90
16038;DHT22;8123;50.906;6.172;2022-09-09T07:21:13;17.10;99.90
16038;DHT22;8123;50.906;6.172;2022-09-09T07:23:39;17.10;99.90
16038;DHT22;8123;50.906;6.172;2022-09-09T07:26:14;17.10;99.90
16038;DHT22;8123;50.906;6.172;2022-09-09T07:28:40;17.20;99.90
16038;DHT22;8123;50.906;6.172;2022-09-09T07:31:12;17.20;99.90
16038;DHT22;8123;50.906;6.172;2022-09-09T07:33:39;17.20;99.90
16038;DHT22;8123;50.906;6.172;2022-09-09T07:38:40;17.30;99.90
16038;DHT22;8123;50.906;6.172;2022-09-09T07:41:08;17.40;99.90
16038;DHT22;8123;50.906;6.172;2022-09-09T07:43:38;17.30;99.90
16038;DHT22;8123;50.906;6.172;2022-09-09T07:46:05;17.40;99.90
16038;DHT22;8123;50.906;6.172;2022-09-09T07:48:31;17.40;99.90
16038;DHT22;8123;50.906;6.172;2022-09-09T07:51:09;17.40;99.90
16038;DHT22;8123;50.906;6.172;2022-09-09T07:53:35;17.40;99.90
16038;DHT22;8123;50.906;6.172;2022-09-09T07:56:10;17.50;99.90
16038;DHT22;8123;50.906;6.172;2022-09-09T07:58:38;17.50;99.90
16038;DHT22;8123;50.906;6.172;2022-09-09T08:01:12;17.60;99.90
16038;DHT22;8123;50.906;6.172;2022-09-09T08:03:39;17.60;99.90
16038;DHT22;8123;50.906;6.172;2022-09-09T08:06:07;17.60;99.90
16038;DHT22;8123;50.906;6.172;2022-09-09T08:08:34;17.50;99.90
16038;DHT22;8123;50.906;6.172;2022-09-09T08:11:15;17.50;99.90
16038;DHT22;8123;50.906;6.172;2022-09-09T08:13:42;17.50;99.90
16038;DHT22;8123;50.906;6.172;2022-09-09T08:16:11;17.50;99.90
16038;DHT22;8123;50.906;6.172;2022-09-09T08:18:37;17.60;99.90
16038;DHT22;8123;50.906;6.172;2022-09-09T08:21:13;17.60;99.90
16038;DHT22;8123;50.906;6.172;2022-09-09T08:23:42;17.60;99.90
16038;DHT22;8123;50.906;6.172;2022-09-09T08:26:19;17.70;99.90
16038;DHT22;8123;50.906;6.172;2022-09-09T08:28:50;17.80;99.90
16038;DHT22;8123;50.906;6.172;2022-09-09T08:31:28;17.80;99.90
16038;DHT22;8123;50.906;6.172;2022-09-09T08:33:55;17.90;99.90
16038;DHT22;8123;50.906;6.172;2022-09-09T08:36:23;17.90;99.90
16038;DHT22;8123;50.906;6.172;2022-09-09T08:38:52;18.00;99.90
16038;DHT22;8123;50.906;6.172;2022-09-09T08:47:42;18.20;99.90
16038;DHT22;8123;50.906;6.172;2022-09-09T08:53:09;18.00;99.90
16038;DHT22;8123;50.906;6.172;2022-09-09T08:58:19;18.00;99.90
16038;DHT22;8123;50.906;6.172;2022-09-09T09:08:45;18.20;99.90
16038;DHT22;8123;50.906;6.172;2022-09-09T09:11:13;18.40;99.90
16038;DHT22;8123;50.906;6.172;2022-09-09T09:13:43;18.40;99.90
16038;DHT22;8123;50.906;6.172;2022-09-09T09:16:41;18.50;99.90
16038;DHT22;8123;50.906;6.172;2022-09-09T09:19:14;18.50;99.90
16038;DHT22;8123;50.906;6.172;2022-09-09T09:21:45;18.40;99.90
16038;DHT22;8123;50.906;6.172;2022-09-09T09:24:23;18.50;99.90
16038;DHT22;8123;50.906;6.172;2022-09-09T09:26:50;18.10;99.90
16038;DHT22;8123;50.906;6.172;2022-09-09T09:29:18;18.70;99.90
16038;DHT22;8123;50.906;6.172;2022-09-09T09:31:55;18.80;99.90
16038;DHT22;8123;50.906;6.172;2022-09-09T09:34:22;18.70;99.90
16038;DHT22;8123;50.906;6.172;2022-09-09T09:36:53;18.70;99.90
16038;DHT22;8123;50.906;6.172;2022-09-09T09:39:27;18.80;99.90
16038;DHT22;8123;50.906;6.172;2022-09-09T09:41:54;19.00;99.90
16038;DHT22;8123;50.906;6.172;2022-09-09T09:44:28;19.10;99.90
16038;DHT22;8123;50.906;6.172;2022-09-09T09:47:11;19.20;99.90
16038;DHT22;8123;50.906;6.172;2022-09-09T09:49:38;19.20;99.90
16038;DHT22;8123;50.906;6.172;2022-09-09T09:52:06;19.40;99.90
16038;DHT22;8123;50.906;6.172;2022-09-09T09:54:41;19.50;99.90
16038;DHT22;8123;50.906;6.172;2022-09-09T09:57:13;19.40;99.90
16038;DHT22;8123;50.906;6.172;2022-09-09T09:59:39;19.20;99.90
16038;DHT22;8123;50.906;6.172;2022-09-09T10:04:42;19.10;99.90
16038;DHT22;8123;50.906;6.172;2022-09-09T10:07:15;19.10;99.90
16038;DHT22;8123;50.906;6.172;2022-09-09T10:09:42;19.00;99.90
16038;DHT22;8123;50.906;6.172;2022-09-09T10:20:32;19.00;99.90
16038;DHT22;8123;50.906;6.172;2022-09-09T10:29:04;19.00;99.90
16038;DHT22;8123;50.906;6.172;2022-09-09T10:32:15;18.90;99.90
16038;DHT22;8123;50.906;6.172;2022-09-09T10:40:37;19.00;99.90
16038;DHT22;8123;50.906;6.172;2022-09-09T10:45:40;18.90;99.90
16038;DHT22;8123;50.906;6.172;2022-09-09T10:48:39;19.00;99.90
16038;DHT22;8123;50.906;6.172;2022-09-09T10:51:27;19.10;99.90
16038;DHT22;8123;50.906;6.172;2022-09-09T10:56:29;19.00;99.90
16038;DHT22;8123;50.906;6.172;2022-09-09T11:01:25;19.00;99.90
16038;DHT22;8123;50.906;6.172;2022-09-09T11:04:01;19.10;99.90
16038;DHT22;8123;50.906;6.172;2022-09-09T11:06:41;19.00;99.90
16038;DHT22;8123;50.906;6.172;2022-09-09T11:09:18;18.80;99.90
16038;DHT22;8123;50.906;6.172;2022-09-09T11:11:55;18.70;99.90
16038;DHT22;8123;50.906;6.172;2022-09-09T11:14:22;18.70;99.90
16038;DHT22;8123;50.906;6.172;2022-09-09T11:16:59;18.70;99.90
16038;DHT22;8123;50.906;6.172;2022-09-09T11:19:43;18.60;99.90
16038;DHT22;8123;50.906;6.172;2022-09-09T11:22:29;18.60;99.90
16038;DHT22;8123;50.906;6.172;2022-09-09T11:25:10;18.70;99.90
16038;DHT22;8123;50.906;6.172;2022-09-09T11:41:43;19.80;99.90
16038;DHT22;8123;50.906;6.172;2022-09-09T11:44:17;19.40;99.90
16038;DHT22;8123;50.906;6.172;2022-09-09T11:46:46;19.40;99.90
16038;DHT22;8123;50.906;6.172;2022-09-09T11:49:30;19.40;99.90
16038;DHT22;8123;50.906;6.172;2022-09-09T11:54:48;19.30;99.90
16038;DHT22;8123;50.906;6.172;2022-09-09T11:57:29;19.40;99.90
16038;DHT22;8123;50.906;6.172;2022-09-09T11:59:56;19.40;99.90
16038;DHT22;8123;50.906;6.172;2022-09-09T12:02:27;19.30;99.90
16038;DHT22;8123;50.906;6.172;2022-09-09T12:05:12;19.20;99.90
16038;DHT22;8123;50.906;6.172;2022-09-09T12:07:45;19.00;99.90
16038;DHT22;8123;50.906;6.172;2022-09-09T12:10:29;19.00;99.90
16038;DHT22;8123;50.906;6.172;2022-09-09T12:12:55;18.90;99.90
16038;DHT22;8123;50.906;6.172;2022-09-09T12:15:22;19.00;99.90
16038;DHT22;8123;50.906;6.172;2022-09-09T12:17:51;19.00;99.90
16038;DHT22;8123;50.906;6.172;2022-09-09T12:20:21;18.90;99.90
16038;DHT22;8123;50.906;6.172;2022-09-09T12:25:35;19.00;99.90
16038;DHT22;8123;50.906;6.172;2022-09-09T12:33:45;19.20;99.90
16038;DHT22;8123;50.906;6.172;2022-09-09T12:36:24;19.20;99.90
16038;DHT22;8123;50.906;6.172;2022-09-09T12:38:52;19.30;99.90
16038;DHT22;8123;50.906;6.172;2022-09-09T12:41:24;19.40;99.90
16038;DHT22;8123;50.906;6.172;2022-09-09T12:43:51;19.50;99.90
16038;DHT22;8123;50.906;6.172;2022-09-09T12:48:54;19.30;99.90
16038;DHT22;8123;50.906;6.172;2022-09-09T12:51:29;19.10;99.90
16038;DHT22;8123;50.906;6.172;2022-09-09T12:53:56;18.80;99.90
16038;DHT22;8123;50.906;6.172;2022-09-09T12:56:25;18.60;99.90
16038;DHT22;8123;50.906;6.172;2022-09-09T12:58:53;18.40;99.90
16038;DHT22;8123;50.906;6.172;2022-09-09T13:01:28;18.20;99.90
16038;DHT22;8123;50.906;6.172;2022-09-09T13:03:55;18.20;99.90
16038;DHT22;8123;50.906;6.172;2022-09-09T13:06:29;18.50;99.90
16038;DHT22;8123;50.906;6.172;2022-09-09T13:08:58;18.50;99.90
16038;DHT22;8123;50.906;6.172;2022-09-09T13:11:39;18.50;99.90
16038;DHT22;8123;50.906;6.172;2022-09-09T13:17:20;18.50;99.90
16038;DHT22;8123;50.906;6.172;2022-09-09T13:19:47;18.50;99.90
16038;DHT22;8123;50.906;6.172;2022-09-09T13:22:35;18.70;99.90
16038;DHT22;8123;50.906;6.172;2022-09-09T13:25:02;18.70;99.90
16038;DHT22;8123;50.906;6.172;2022-09-09T13:27:34;18.80;99.90
16038;DHT22;8123;50.906;6.172;2022-09-09T13:30:00;18.80;99.90
16038;DHT22;8123;50.906;6.172;2022-09-09T13:32:27;18.80;99.90
16038;DHT22;8123;50.906;6.172;2022-09-09T13:34:57;18.80;99.90
16038;DHT22;8123;50.906;6.172;2022-09-09T13:37:34;19.00;99.90
16038;DHT22;8123;50.906;6.172;2022-09-09T13:40:01;19.10;99.90
16038;DHT22;8123;50.906;6.172;2022-09-09T13:42:33;19.20;99.90
16038;DHT22;8123;50.906;6.172;2022-09-09T13:45:03;19.10;99.90
16038;DHT22;8123;50.906;6.172;2022-09-09T13:47:33;19.20;99.90
16038;DHT22;8123;50.906;6.172;2022-09-09T13:50:26;19.20;99.90
16038;DHT22;8123;50.906;6.172;2022-09-09T13:52:54;19.20;99.90
16038;DHT22;8123;50.906;6.172;2022-09-09T13:55:22;19.30;99.90
16038;DHT22;8123;50.906;6.172;2022-09-09T14:00:21;19.50;99.90
16038;DHT22;8123;50.906;6.172;2022-09-09T14:02:48;19.60;99.90
16038;DHT22;8123;50.906;6.172;2022-09-09T14:05:14;19.70;99.90
16038;DHT22;8123;50.906;6.172;2022-09-09T14:07:42;19.70;99.90
16038;DHT22;8123;50.906;6.172;2022-09-09T14:10:09;19.80;99.90
16038;DHT22;8123;50.906;6.172;2022-09-09T14:12:34;19.90;99.90
16038;DHT22;8123;50.906;6.172;2022-09-09T14:15:02;20.00;99.90
16038;DHT22;8123;50.906;6.172;2022-09-09T14:17:28;20.10;99.90
16038;DHT22;8123;50.906;6.172;2022-09-09T14:19:55;20.10;99.90
16038;DHT22;8123;50.906;6.172;2022-09-09T14:22:21;20.10;99.90
16038;DHT22;8123;50.906;6.172;2022-09-09T14:24:47;20.00;99.90
16038;DHT22;8123;50.906;6.172;2022-09-09T14:27:13;20.00;99.90
16038;DHT22;8123;50.906;6.172;2022-09-09T14:29:39;20.20;99.90
16038;DHT22;8123;50.906;6.172;2022-09-09T14:32:04;20.00;99.90
16038;DHT22;8123;50.906;6.172;2022-09-09T14:34:30;20.00;99.90
16038;DHT22;8123;50.906;6.172;2022-09-09T14:36:58;20.00;99.90
16038;DHT22;8123;50.906;6.172;2022-09-09T14:39:23;20.00;99.90
16038;DHT22;8123;50.906;6.172;2022-09-09T14:41:49;19.90;99.90
16038;DHT22;8123;50.906;6.172;2022-09-09T14:44:15;19.80;99.90
16038;DHT22;8123;50.906;6.172;2022-09-09T14:46:41;19.60;99.90
16038;DHT22;8123;50.906;6.172;2022-09-09T14:49:08;19.60;99.90
16038;DHT22;8123;50.906;6.172;2022-09-09T14:51:35;19.50;99.90
16038;DHT22;8123;50.906;6.172;2022-09-09T14:54:01;19.30;99.90
16038;DHT22;8123;50.906;6.172;2022-09-09T14:56:30;19.30;99.90
16038;DHT22;8123;50.906;6.172;2022-09-09T14:58:57;19.20;99.90
16038;DHT22;8123;50.906;6.172;2022-09-09T15:01:24;19.20;99.90
16038;DHT22;8123;50.906;6.172;2022-09-09T15:04:03;19.00;99.90
16038;DHT22;8123;50.906;6.172;2022-09-09T15:06:31;18.90;99.90
16038;DHT22;8123;50.906;6.172;2022-09-09T15:08:58;18.90;99.90
16038;DHT22;8123;50.906;6.172;2022-09-09T15:11:27;18.90;99.90
16038;DHT22;8123;50.906;6.172;2022-09-09T15:13:53;19.00;99.90
16038;DHT22;8123;50.906;6.172;2022-09-09T15:16:20;18.80;99.90
16038;DHT22;8123;50.906;6.172;2022-09-09T15:18:50;18.80;99.90
16038;DHT22;8123;50.906;6.172;2022-09-09T15:21:18;18.70;99.90
16038;DHT22;8123;50.906;6.172;2022-09-09T15:23:45;18.70;99.90
16038;DHT22;8123;50.906;6.172;2022-09-09T15:26:11;18.60;99.90
16038;DHT22;8123;50.906;6.172;2022-09-09T15:28:40;18.50;99.90
16038;DHT22;8123;50.906;6.172;2022-09-09T15:31:14;18.50;99.90
16038;DHT22;8123;50.906;6.172;2022-09-09T15:33:41;18.40;99.90
16038;DHT22;8123;50.906;6.172;2022-09-09T15:38:42;18.70;99.90
16038;DHT22;8123;50.906;6.172;2022-09-09T15:41:10;18.80;99.90
16038;DHT22;8123;50.906;6.172;2022-09-09T15:43:35;18.80;99.90
16038;DHT22;8123;50.906;6.172;2022-09-09T15:48:43;19.00;99.90
16038;DHT22;8123;50.906;6.172;2022-09-09T15:51:14;19.10;99.90
16038;DHT22;8123;50.906;6.172;2022-09-09T15:53:40;19.10;99.90
16038;DHT22;8123;50.906;6.172;2022-09-09T15:56:06;19.00;99.90
16038;DHT22;8123;50.906;6.172;2022-09-09T15:58:32;18.90;99.90
16038;DHT22;8123;50.906;6.172;2022-09-09T16:01:09;18.90;99.90
16038;DHT22;8123;50.906;6.172;2022-09-09T16:03:46;19.10;99.90
16038;DHT22;8123;50.906;6.172;2022-09-09T16:06:14;19.20;99.90
16038;DHT22;8123;50.906;6.172;2022-09-09T16:08:42;19.10;99.90
16038;DHT22;8123;50.906;6.172;2022-09-09T16:11:13;19.00;99.90
16038;DHT22;8123;50.906;6.172;2022-09-09T16:13:43;18.90;99.90
16038;DHT22;8123;50.906;6.172;2022-09-09T16:16:14;18.90;99.90
16038;DHT22;8123;50.906;6.172;2022-09-09T16:18:45;18.90;99.90
16038;DHT22;8123;50.906;6.172;2022-09-09T16:21:17;18.90;99.90
16038;DHT22;8123;50.906;6.172;2022-09-09T16:23:43;19.20;99.90
16038;DHT22;8123;50.906;6.172;2022-09-09T16:26:15;19.30;99.90
16038;DHT22;8123;50.906;6.172;2022-09-09T16:28:41;19.30;99.90
16038;DHT22;8123;50.906;6.172;2022-09-09T16:31:08;19.40;99.90
16038;DHT22;8123;50.906;6.172;2022-09-09T16:33:35;19.40;99.90
16038;DHT22;8123;50.906;6.172;2022-09-09T16:36:11;19.20;99.90
16038;DHT22;8123;50.906;6.172;2022-09-09T16:38:38;18.90;99.90
16038;DHT22;8123;50.906;6.172;2022-09-09T16:41:04;18.70;99.90
16038;DHT22;8123;50.906;6.172;2022-09-09T16:43:34;18.50;99.90
16038;DHT22;8123;50.906;6.172;2022-09-09T16:46:02;18.40;99.90
16038;DHT22;8123;50.906;6.172;2022-09-09T16:48:33;18.30;99.90
16038;DHT22;8123;50.906;6.172;2022-09-09T16:51:04;18.20;99.90
16038;DHT22;8123;50.906;6.172;2022-09-09T16:53:31;18.20;99.90
16038;DHT22;8123;50.906;6.172;2022-09-09T16:55:57;18.10;99.90
16038;DHT22;8123;50.906;6.172;2022-09-09T16:58:22;18.00;99.90
16038;DHT22;8123;50.906;6.172;2022-09-09T17:00:48;17.90;99.90
16038;DHT22;8123;50.906;6.172;2022-09-09T17:03:14;17.80;99.90
16038;DHT22;8123;50.906;6.172;2022-09-09T17:05:41;17.80;99.90
16038;DHT22;8123;50.906;6.172;2022-09-09T17:08:07;17.70;99.90
16038;DHT22;8123;50.906;6.172;2022-09-09T17:10:33;17.70;99.90
16038;DHT22;8123;50.906;6.172;2022-09-09T17:12:59;17.90;99.90
16038;DHT22;8123;50.906;6.172;2022-09-09T17:15:24;17.60;99.90
16038;DHT22;8123;50.906;6.172;2022-09-09T17:17:50;17.60;99.90
16038;DHT22;8123;50.906;6.172;2022-09-09T17:20:18;17.50;99.90
16038;DHT22;8123;50.906;6.172;2022-09-09T17:22:44;17.50;99.90
16038;DHT22;8123;50.906;6.172;2022-09-09T17:25:10;17.50;99.90
16038;DHT22;8123;50.906;6.172;2022-09-09T17:27:36;17.40;99.90
16038;DHT22;8123;50.906;6.172;2022-09-09T17:30:02;17.40;99.90
16038;DHT22;8123;50.906;6.172;2022-09-09T17:32:28;17.30;99.90
16038;DHT22;8123;50.906;6.172;2022-09-09T17:34:55;17.30;99.90
16038;DHT22;8123;50.906;6.172;2022-09-09T17:37:21;17.30;99.90
16038;DHT22;8123;50.906;6.172;2022-09-09T17:39:46;17.20;99.90
16038;DHT22;8123;50.906;6.172;2022-09-09T17:42:12;17.30;99.90
16038;DHT22;8123;50.906;6.172;2022-09-09T17:44:38;17.20;99.90
16038;DHT22;8123;50.906;6.172;2022-09-09T17:47:05;17.30;99.90
16038;DHT22;8123;50.906;6.172;2022-09-09T17:49:31;17.10;99.90
16038;DHT22;8123;50.906;6.172;2022-09-09T17:51:57;17.00;99.90
16038;DHT22;8123;50.906;6.172;2022-09-09T17:54:23;16.90;99.90
16038;DHT22;8123;50.906;6.172;2022-09-09T17:56:48;16.80;99.90
16038;DHT22;8123;50.906;6.172;2022-09-09T17:59:16;16.80;99.90
16038;DHT22;8123;50.906;6.172;2022-09-09T18:01:44;16.70;99.90
16038;DHT22;8123;50.906;6.172;2022-09-09T18:04:10;16.70;99.90
16038;DHT22;8123;50.906;6.172;2022-09-09T18:06:41;16.70;99.90
16038;DHT22;8123;50.906;6.172;2022-09-09T18:09:10;16.60;99.90